Time;durP1;ratioP1;P1;durP2;ratioP2;P2;SDS_P1;SDS_P2;PMS_P1;PMS_P2;Temp;Humidity;BMP_temperature;BMP_pressure;BME280_temperature;BME280_humidity;BME280_pressure;Samples;Min_cycle;Max_cycle;Signal;HPM_P1;HPM_P2
2023/04/30 00:02:30;;;;;;;4.20;1.50;;;;;;;;;;10265838;28;20224;-81
2023/04/30 00:07:31;;;;;;;2.20;1.70;;;;;;;;;;10248354;28;20217;-77
2023/04/30 00:12:32;;;;;;;2.47;1.40;;;;;;;;;;10254026;28;20292;-79
2023/04/30 00:17:33;;;;;;;1.20;0.80;;;;;;;;;;10251945;28;20545;-79
2023/04/30 00:22:34;;;;;;;1.83;0.90;;;;;;;;;;10254951;28;20218;-78
2023/04/30 00:27:35;;;;;;;1.92;1.27;;;;;;;;;;10263522;28;20224;-79
2023/04/30 00:32:36;;;;;;;3.60;1.10;;;;;;;;;;10274976;28;20222;-78
2023/04/30 00:37:38;;;;;;;1.27;0.80;;;;;;;;;;10275172;28;20232;-79
2023/04/30 00:42:39;;;;;;;0.80;0.80;;;;;;;;;;10275457;28;20228;-79
2023/04/30 00:47:40;;;;;;;4.20;1.40;;;;;;;;;;10278445;28;20301;-79
2023/04/30 00:52:42;;;;;;;1.85;1.30;;;;;;;;;;10262659;28;20837;-81
2023/04/30 00:57:43;;;;;;;2.33;0.80;;;;;;;;;;10263401;28;20296;-80
2023/04/30 01:02:44;;;;;;;2.15;0.90;;;;;;;;;;10269788;28;20236;-81
2023/04/30 01:07:45;;;;;;;0.98;0.88;;;;;;;;;;10274573;28;20308;-80
2023/04/30 01:12:53;;;;;;;3.60;1.20;;;;;;;;;;10259350;28;20229;-79
2023/04/30 01:17:56;;;;;;;3.63;1.00;;;;;;;;;;10262497;28;20217;-79
2023/04/30 01:23:09;;;;;;;0.80;0.75;;;;;;;;;;10277613;28;20763;-79
2023/04/30 01:28:15;;;;;;;2.95;0.80;;;;;;;;;;10256806;28;20236;-81
2023/04/30 01:33:17;;;;;;;1.95;0.95;;;;;;;;;;10273961;28;20225;-79
2023/04/30 01:38:27;;;;;;;1.73;1.00;;;;;;;;;;10274211;28;20217;-80
2023/04/30 01:43:44;;;;;;;1.40;1.30;;;;;;;;;;10274295;28;20311;-79
2023/04/30 01:48:55;;;;;;;2.40;1.00;;;;;;;;;;10253680;28;20245;-79
2023/04/30 01:54:05;;;;;;;7.90;1.30;;;;;;;;;;10270863;28;20254;-79
2023/04/30 01:59:06;;;;;;;1.65;0.88;;;;;;;;;;10265866;28;20568;-77
2023/04/30 02:04:07;;;;;;;1.67;0.63;;;;;;;;;;10265218;28;20284;-79
2023/04/30 02:09:09;;;;;;;0.95;0.95;;;;;;;;;;10246441;28;20284;-80
2023/04/30 02:14:10;;;;;;;1.80;1.33;;;;;;;;;;10282259;28;20222;-80
2023/04/30 02:19:12;;;;;;;3.97;1.40;;;;;;;;;;10264428;28;20527;-78
2023/04/30 02:24:13;;;;;;;0.98;0.98;;;;;;;;;;10280964;28;20304;-79
2023/04/30 02:29:14;;;;;;;3.78;2.05;;;;;;;;;;10283549;28;20256;-80
2023/04/30 02:34:15;;;;;;;3.17;1.40;;;;;;;;;;10267914;28;20279;-77
2023/04/30 02:39:16;;;;;;;4.30;1.50;;;;;;;;;;10252021;28;20222;-78
2023/04/30 02:44:17;;;;;;;2.42;0.85;;;;;;;;;;10251277;28;20719;-81
2023/04/30 02:49:18;;;;;;;1.13;0.93;;;;;;;;;;10246164;28;20213;-76
2023/04/30 02:54:19;;;;;;;1.63;0.60;;;;;;;;;;10248692;28;20229;-78
2023/04/30 02:59:20;;;;;;;3.47;0.85;;;;;;;;;;10247144;28;20692;-79
2023/04/30 03:04:21;;;;;;;5.32;1.13;;;;;;;;;;10257691;28;20221;-77
2023/04/30 03:09:22;;;;;;;0.90;0.90;;;;;;;;;;10245648;28;20244;-79
2023/04/30 03:14:23;;;;;;;2.20;0.70;;;;;;;;;;10254802;28;20218;-78
2023/04/30 03:19:24;;;;;;;1.23;1.00;;;;;;;;;;10263105;28;20249;-78
2023/04/30 03:24:25;;;;;;;3.63;1.05;;;;;;;;;;10250652;28;20784;-79
2023/04/30 03:29:26;;;;;;;7.72;0.98;;;;;;;;;;10265752;28;20304;-80
2023/04/30 03:34:27;;;;;;;2.05;1.00;;;;;;;;;;10264871;28;20323;-78
2023/04/30 03:39:28;;;;;;;1.75;0.95;;;;;;;;;;10250602;28;20839;-80
2023/04/30 03:44:29;;;;;;;4.50;1.05;;;;;;;;;;10263617;28;20218;-81
2023/04/30 03:49:30;;;;;;;3.42;1.17;;;;;;;;;;10250618;28;20213;-77
2023/04/30 03:54:32;;;;;;;3.40;0.95;;;;;;;;;;10246076;28;20224;-81
2023/04/30 03:59:33;;;;;;;2.80;1.00;;;;;;;;;;10263620;28;20214;-80
2023/04/30 04:04:35;;;;;;;2.60;1.08;;;;;;;;;;10247335;28;20359;-80
2023/04/30 04:09:36;;;;;;;4.70;1.55;;;;;;;;;;10249840;28;20304;-79
2023/04/30 04:14:38;;;;;;;5.07;1.70;;;;;;;;;;10265412;28;20219;-80
2023/04/30 04:19:39;;;;;;;0.82;0.82;;;;;;;;;;10249770;28;20217;-79
2023/04/30 04:24:40;;;;;;;2.58;1.38;;;;;;;;;;10237790;28;20209;-78
2023/04/30 04:29:42;;;;;;;3.78;1.20;;;;;;;;;;10265056;28;20267;-79
2023/04/30 04:34:44;;;;;;;0.82;0.70;;;;;;;;;;10254697;28;20727;-79
2023/04/30 04:39:45;;;;;;;4.70;1.40;;;;;;;;;;10267301;28;20233;-80
2023/04/30 04:44:47;;;;;;;3.90;1.20;;;;;;;;;;10264155;28;20292;-78
2023/04/30 04:49:48;;;;;;;1.58;1.17;;;;;;;;;;10263821;28;20369;-80
2023/04/30 04:54:49;;;;;;;2.58;1.70;;;;;;;;;;10266463;28;20244;-78
2023/04/30 04:59:50;;;;;;;3.03;1.30;;;;;;;;;;10251938;28;20225;-79
2023/04/30 05:04:51;;;;;;;4.50;1.58;;;;;;;;;;10228169;28;20222;-78
2023/04/30 05:09:53;;;;;;;5.97;1.45;;;;;;;;;;10255573;28;20213;-78
2023/04/30 05:14:54;;;;;;;3.28;0.90;;;;;;;;;;10261119;28;20217;-77
2023/04/30 05:19:55;;;;;;;1.33;1.33;;;;;;;;;;10256175;28;20221;-79
2023/04/30 05:24:56;;;;;;;1.70;1.17;;;;;;;;;;10256048;28;20778;-79
2023/04/30 05:29:57;;;;;;;5.30;1.30;;;;;;;;;;10270120;28;20237;-78
2023/04/30 05:34:58;;;;;;;2.67;1.42;;;;;;;;;;10257449;28;20720;-79
2023/04/30 05:39:59;;;;;;;2.40;1.05;;;;;;;;;;10271214;28;20222;-79
2023/04/30 05:45:01;;;;;;;3.25;1.20;;;;;;;;;;10271148;28;20228;-79
2023/04/30 05:50:02;;;;;;;4.05;1.00;;;;;;;;;;10253352;28;20225;-78
2023/04/30 05:55:03;;;;;;;5.13;1.38;;;;;;;;;;10243431;28;20490;-79
2023/04/30 06:00:08;;;;;;;3.55;1.30;;;;;;;;;;10256388;28;20610;-79
2023/04/30 06:05:15;;;;;;;4.75;1.17;;;;;;;;;;10259258;28;20214;-78
2023/04/30 06:10:16;;;;;;;2.30;1.05;;;;;;;;;;10266563;28;20249;-78
2023/04/30 06:15:17;;;;;;;2.42;1.10;;;;;;;;;;10265616;28;20190;-79
2023/04/30 06:20:18;;;;;;;5.88;1.02;;;;;;;;;;10252694;28;20206;-77
2023/04/30 06:25:19;;;;;;;2.83;1.02;;;;;;;;;;10256382;28;20213;-78
2023/04/30 06:30:20;;;;;;;3.70;1.10;;;;;;;;;;10265648;28;20225;-80
2023/04/30 06:35:21;;;;;;;3.80;1.38;;;;;;;;;;10248281;28;20905;-76
2023/04/30 06:40:23;;;;;;;2.35;1.10;;;;;;;;;;10263067;28;20692;-79
2023/04/30 06:45:24;;;;;;;1.05;0.98;;;;;;;;;;10257526;28;21333;-78
2023/04/30 06:50:25;;;;;;;1.77;1.00;;;;;;;;;;10248279;28;20320;-79
2023/04/30 06:55:26;;;;;;;4.32;1.67;;;;;;;;;;10238016;28;20300;-78
2023/04/30 07:00:27;;;;;;;3.10;1.15;;;;;;;;;;10242151;28;20249;-79
2023/04/30 07:05:29;;;;;;;2.47;0.98;;;;;;;;;;10242405;28;20292;-77
2023/04/30 07:10:30;;;;;;;4.00;1.27;;;;;;;;;;10242178;28;20279;-79
2023/04/30 07:15:31;;;;;;;1.42;1.30;;;;;;;;;;10243296;28;20227;-77
2023/04/30 07:20:33;;;;;;;2.08;0.95;;;;;;;;;;10250927;28;20280;-79
2023/04/30 07:25:34;;;;;;;4.47;1.48;;;;;;;;;;10242946;28;20229;-77
2023/04/30 07:30:35;;;;;;;3.35;0.98;;;;;;;;;;10242335;28;20225;-77
2023/04/30 07:35:36;;;;;;;5.25;1.00;;;;;;;;;;10242731;28;20221;-79
2023/04/30 07:40:37;;;;;;;3.78;1.27;;;;;;;;;;10259849;28;20601;-78
2023/04/30 07:45:38;;;;;;;4.78;1.20;;;;;;;;;;10238431;28;20242;-79
2023/04/30 07:50:39;;;;;;;4.43;0.82;;;;;;;;;;10256508;28;20937;-78
2023/04/30 07:55:40;;;;;;;2.25;1.13;;;;;;;;;;10237849;28;20221;-77
2023/04/30 08:00:41;;;;;;;0.73;0.70;;;;;;;;;;10239732;28;20239;-77
2023/04/30 08:05:42;;;;;;;1.67;0.57;;;;;;;;;;10241419;28;20788;-78
2023/04/30 08:10:43;;;;;;;7.22;0.90;;;;;;;;;;10241373;28;20248;-80
2023/04/30 08:15:45;;;;;;;1.88;0.82;;;;;;;;;;10243598;28;20221;-76
2023/04/30 08:20:46;;;;;;;2.20;1.15;;;;;;;;;;10246113;28;20222;-78
2023/04/30 08:25:47;;;;;;;4.55;1.15;;;;;;;;;;10240076;28;20213;-78
2023/04/30 08:30:48;;;;;;;7.30;0.98;;;;;;;;;;10238669;28;20221;-79
2023/04/30 08:35:49;;;;;;;7.30;0.70;;;;;;;;;;10242608;28;20217;-76
2023/04/30 08:41:17;;;;;;;5.50;1.13;;;;;;;;;;10249973;28;20228;-79
2023/04/30 08:46:19;;;;;;;2.28;0.88;;;;;;;;;;10248965;28;20213;-79
2023/04/30 08:51:21;;;;;;;1.25;0.82;;;;;;;;;;10258423;28;20221;-79
2023/04/30 08:56:23;;;;;;;2.70;0.90;;;;;;;;;;10262843;28;20248;-79
2023/04/30 09:01:24;;;;;;;2.78;1.13;;;;;;;;;;10256853;28;20770;-78
2023/04/30 09:06:26;;;;;;;0.93;0.88;;;;;;;;;;10263143;28;20221;-78
2023/04/30 09:11:28;;;;;;;3.85;1.10;;;;;;;;;;10250370;28;20225;-77
2023/04/30 09:16:49;;;;;;;2.50;1.05;;;;;;;;;;10256982;28;20218;-78
2023/04/30 09:21:50;;;;;;;0.90;0.80;;;;;;;;;;10252848;28;20221;-78
2023/04/30 09:26:51;;;;;;;0.85;0.70;;;;;;;;;;10252109;28;20226;-77
2023/04/30 09:31:52;;;;;;;0.80;0.80;;;;;;;;;;10267894;28;20224;-77
2023/04/30 09:36:54;;;;;;;1.60;0.77;;;;;;;;;;10270282;28;20569;-79
2023/04/30 09:42:08;;;;;;;1.38;0.70;;;;;;;;;;10260125;28;20213;-76
2023/04/30 09:47:20;;;;;;;1.58;0.65;;;;;;;;;;10259603;28;20221;-81
2023/04/30 09:52:21;;;;;;;3.10;0.77;;;;;;;;;;10258587;28;20230;-78
2023/04/30 09:57:23;;;;;;;1.58;0.93;;;;;;;;;;10271048;28;20220;-80
2023/04/30 10:02:25;;;;;;;2.03;0.90;;;;;;;;;;10258036;28;20229;-78
2023/04/30 10:07:31;;;;;;;0.98;0.90;;;;;;;;;;10270882;28;20246;-78
2023/04/30 10:12:37;;;;;;;2.15;0.70;;;;;;;;;;10270369;28;21376;-81
2023/04/30 10:17:40;;;;;;;3.20;0.80;;;;;;;;;;10273855;28;20312;-76
2023/04/30 10:22:42;;;;;;;1.48;1.25;;;;;;;;;;10276528;28;20232;-81
2023/04/30 10:27:43;;;;;;;3.35;0.90;;;;;;;;;;10278146;28;20316;-80
2023/04/30 10:33:02;;;;;;;3.15;1.08;;;;;;;;;;10247099;28;20283;-80
2023/04/30 10:38:15;;;;;;;0.80;0.80;;;;;;;;;;10260043;28;20233;-78
2023/04/30 10:43:20;;;;;;;1.80;0.77;;;;;;;;;;10246596;28;20258;-77
2023/04/30 10:48:25;;;;;;;1.30;0.80;;;;;;;;;;10242274;28;20666;-77
2023/04/30 10:53:30;;;;;;;0.80;0.55;;;;;;;;;;10255212;28;20222;-79
2023/04/30 10:58:33;;;;;;;0.85;0.85;;;;;;;;;;10240064;28;20336;-81
2023/04/30 11:03:36;;;;;;;3.60;0.88;;;;;;;;;;10258170;28;20917;-80
2023/04/30 11:08:37;;;;;;;1.17;0.80;;;;;;;;;;10239783;28;21584;-78
2023/04/30 11:13:44;;;;;;;0.68;0.63;;;;;;;;;;10259324;28;20221;-79
2023/04/30 11:18:46;;;;;;;2.50;1.00;;;;;;;;;;10247419;28;20714;-77
2023/04/30 11:23:48;;;;;;;0.60;0.60;;;;;;;;;;10249017;28;20244;-79
2023/04/30 11:28:52;;;;;;;2.28;0.77;;;;;;;;;;10242009;28;20213;-78
2023/04/30 11:33:55;;;;;;;1.77;0.60;;;;;;;;;;10245244;28;20229;-79
2023/04/30 11:38:56;;;;;;;2.35;0.93;;;;;;;;;;10245884;28;20735;-77
2023/04/30 11:43:57;;;;;;;1.33;0.52;;;;;;;;;;10247121;28;20699;-77
2023/04/30 11:48:59;;;;;;;1.25;0.70;;;;;;;;;;10245307;28;20229;-80
2023/04/30 11:54:00;;;;;;;1.15;0.60;;;;;;;;;;10241805;28;20233;-79
2023/04/30 11:59:01;;;;;;;1.65;0.75;;;;;;;;;;10243357;28;20693;-78
2023/04/30 12:04:05;;;;;;;2.53;0.93;;;;;;;;;;10246077;28;21555;-80
2023/04/30 12:09:08;;;;;;;2.80;1.02;;;;;;;;;;10236749;28;20225;-82
2023/04/30 12:14:10;;;;;;;3.40;0.88;;;;;;;;;;10261080;28;20358;-79
2023/04/30 12:19:12;;;;;;;2.40;0.90;;;;;;;;;;10272640;28;20252;-77
2023/04/30 12:24:14;;;;;;;1.85;0.80;;;;;;;;;;10253927;28;20244;-80
2023/04/30 12:29:17;;;;;;;0.82;0.50;;;;;;;;;;10263315;28;20249;-76
2023/04/30 12:34:18;;;;;;;0.77;0.77;;;;;;;;;;10267915;28;20245;-77
2023/04/30 12:39:20;;;;;;;1.55;0.55;;;;;;;;;;10265956;28;20248;-78
2023/04/30 12:44:25;;;;;;;1.38;0.82;;;;;;;;;;10268321;28;20596;-76
2023/04/30 12:49:27;;;;;;;1.92;0.77;;;;;;;;;;10257009;28;20804;-80
2023/04/30 12:54:28;;;;;;;0.52;0.52;;;;;;;;;;10254898;28;20764;-79
2023/04/30 12:59:30;;;;;;;1.27;0.65;;;;;;;;;;10266685;28;20271;-78
2023/04/30 13:04:31;;;;;;;1.08;0.60;;;;;;;;;;10251263;28;20218;-78
2023/04/30 13:09:33;;;;;;;0.80;0.60;;;;;;;;;;10255219;28;20304;-81
2023/04/30 13:14:34;;;;;;;1.77;0.70;;;;;;;;;;10259270;28;20217;-77
2023/04/30 13:19:35;;;;;;;0.90;0.80;;;;;;;;;;10261181;28;20217;-77
2023/04/30 13:24:36;;;;;;;3.03;0.70;;;;;;;;;;10259924;28;20355;-79
2023/04/30 13:29:37;;;;;;;3.00;1.15;;;;;;;;;;10273805;28;20290;-77
2023/04/30 13:34:38;;;;;;;1.33;0.60;;;;;;;;;;10255711;28;20225;-79
2023/04/30 13:39:39;;;;;;;3.45;0.63;;;;;;;;;;10254554;28;20935;-78
2023/04/30 13:44:40;;;;;;;1.85;0.70;;;;;;;;;;10254680;28;20221;-80
2023/04/30 13:49:41;;;;;;;1.77;0.80;;;;;;;;;;10253776;28;20240;-79
2023/04/30 13:54:42;;;;;;;1.33;0.63;;;;;;;;;;10251680;28;20230;-80
2023/04/30 13:59:43;;;;;;;0.73;0.63;;;;;;;;;;10256647;28;20653;-81
2023/04/30 14:04:44;;;;;;;0.50;0.50;;;;;;;;;;10253897;28;20240;-80
2023/04/30 14:09:45;;;;;;;1.10;0.63;;;;;;;;;;10264237;28;20308;-81
2023/04/30 14:14:46;;;;;;;0.65;0.65;;;;;;;;;;10250342;28;20222;-78
2023/04/30 14:19:47;;;;;;;1.25;0.70;;;;;;;;;;10253836;28;20241;-79
2023/04/30 14:24:48;;;;;;;1.15;0.80;;;;;;;;;;10253590;28;20241;-80
2023/04/30 14:29:50;;;;;;;1.52;0.77;;;;;;;;;;10254983;28;20637;-79
2023/04/30 14:34:51;;;;;;;1.90;0.60;;;;;;;;;;10252680;28;20232;-79
2023/04/30 14:39:53;;;;;;;0.80;0.70;;;;;;;;;;10266530;28;20247;-77
2023/04/30 14:44:54;;;;;;;0.88;0.70;;;;;;;;;;10251601;28;20210;-79
2023/04/30 14:49:57;;;;;;;2.83;0.60;;;;;;;;;;10269691;28;20224;-79
2023/04/30 14:54:58;;;;;;;1.85;0.47;;;;;;;;;;10251444;28;20708;-77
2023/04/30 14:59:59;;;;;;;0.60;0.60;;;;;;;;;;10246573;28;20256;-79
2023/04/30 15:05:03;;;;;;;1.98;0.70;;;;;;;;;;10252541;28;20320;-79
2023/04/30 15:10:05;;;;;;;1.05;0.60;;;;;;;;;;10232618;28;20214;-79
2023/04/30 15:15:06;;;;;;;1.75;0.80;;;;;;;;;;10244787;28;20233;-78
2023/04/30 15:20:07;;;;;;;0.73;0.68;;;;;;;;;;10257401;28;20198;-78
2023/04/30 15:25:09;;;;;;;5.18;0.80;;;;;;;;;;10236916;28;20206;-77
2023/04/30 15:30:10;;;;;;;0.88;0.88;;;;;;;;;;10242669;28;20233;-81
2023/04/30 15:35:11;;;;;;;0.90;0.70;;;;;;;;;;10242427;28;20743;-80
2023/04/30 15:40:14;;;;;;;0.85;0.65;;;;;;;;;;10261224;28;20209;-81
2023/04/30 15:45:15;;;;;;;1.17;0.70;;;;;;;;;;10246782;28;20201;-83
2023/04/30 15:50:16;;;;;;;1.08;1.08;;;;;;;;;;10229841;28;20209;-78
2023/04/30 15:55:17;;;;;;;2.40;0.88;;;;;;;;;;10244151;28;20216;-80
2023/04/30 16:00:18;;;;;;;0.70;0.70;;;;;;;;;;10242893;28;20216;-81
2023/04/30 16:05:19;;;;;;;1.58;0.90;;;;;;;;;;10248900;28;20259;-78
2023/04/30 16:10:20;;;;;;;4.45;1.05;;;;;;;;;;10247577;28;20212;-79
2023/04/30 16:15:23;;;;;;;1.42;0.55;;;;;;;;;;10249257;28;20205;-76
2023/04/30 16:20:24;;;;;;;0.80;0.80;;;;;;;;;;10258511;28;20288;-78
2023/04/30 16:25:25;;;;;;;0.88;0.88;;;;;;;;;;10238565;28;20280;-77
2023/04/30 16:30:26;;;;;;;1.15;0.80;;;;;;;;;;10243773;28;20770;-77
2023/04/30 16:35:27;;;;;;;0.90;0.90;;;;;;;;;;10242866;28;20291;-76
2023/04/30 16:40:29;;;;;;;3.33;0.80;;;;;;;;;;10238791;28;20224;-79
2023/04/30 16:45:30;;;;;;;3.42;0.85;;;;;;;;;;10236807;28;20241;-79
2023/04/30 16:50:31;;;;;;;3.88;0.93;;;;;;;;;;10245077;28;20703;-79
2023/04/30 16:55:32;;;;;;;0.75;0.75;;;;;;;;;;10238459;28;20225;-76
2023/04/30 17:00:34;;;;;;;2.38;1.10;;;;;;;;;;10254352;28;20226;-78
2023/04/30 17:05:35;;;;;;;1.00;0.77;;;;;;;;;;10247003;28;20221;-81
2023/04/30 17:10:44;;;;;;;3.42;0.70;;;;;;;;;;10248932;28;20221;-81
2023/04/30 17:15:45;;;;;;;3.17;0.90;;;;;;;;;;10251959;28;20213;-80
2023/04/30 17:20:48;;;;;;;2.05;0.70;;;;;;;;;;10264271;28;20226;-82
2023/04/30 17:25:49;;;;;;;2.20;0.77;;;;;;;;;;10254998;28;20226;-80
2023/04/30 17:30:51;;;;;;;1.35;1.00;;;;;;;;;;10249314;28;20217;-79
2023/04/30 17:35:52;;;;;;;1.63;0.93;;;;;;;;;;10252314;28;20475;-83
2023/04/30 17:40:53;;;;;;;0.70;0.70;;;;;;;;;;10262920;28;20268;-81
2023/04/30 17:45:56;;;;;;;3.58;0.82;;;;;;;;;;10251751;28;20322;-80
2023/04/30 17:50:57;;;;;;;1.00;0.80;;;;;;;;;;10247518;28;20292;-79
2023/04/30 17:55:58;;;;;;;2.53;1.02;;;;;;;;;;10246956;28;20893;-78
2023/04/30 18:01:00;;;;;;;5.20;0.90;;;;;;;;;;10248017;28;20236;-78
2023/04/30 18:06:01;;;;;;;2.05;0.88;;;;;;;;;;10243800;28;20653;-78
2023/04/30 18:11:02;;;;;;;0.73;0.73;;;;;;;;;;10249541;28;20224;-80
2023/04/30 18:16:03;;;;;;;0.82;0.75;;;;;;;;;;10246345;28;20228;-77
2023/04/30 18:21:04;;;;;;;4.43;1.17;;;;;;;;;;10246751;28;20228;-79
2023/04/30 18:26:06;;;;;;;1.52;1.13;;;;;;;;;;10249170;28;20221;-77
2023/04/30 18:31:07;;;;;;;5.88;1.15;;;;;;;;;;10270496;28;20217;-79
2023/04/30 18:36:08;;;;;;;1.60;1.38;;;;;;;;;;10246675;28;20811;-77
2023/04/30 18:41:09;;;;;;;2.58;1.50;;;;;;;;;;10253843;28;20216;-81
2023/04/30 18:46:10;;;;;;;2.30;1.52;;;;;;;;;;10247725;28;20253;-79
2023/04/30 18:51:11;;;;;;;3.83;1.50;;;;;;;;;;10264437;28;20232;-80
2023/04/30 18:56:13;;;;;;;4.30;2.20;;;;;;;;;;10250659;28;20225;-78
2023/04/30 19:01:14;;;;;;;2.17;1.77;;;;;;;;;;10255427;28;20225;-79
2023/04/30 19:06:16;;;;;;;2.25;2.00;;;;;;;;;;10249627;28;20226;-79
2023/04/30 19:11:17;;;;;;;3.45;1.70;;;;;;;;;;10252633;28;20232;-79
2023/04/30 19:16:18;;;;;;;2.40;2.30;;;;;;;;;;10240662;28;20247;-79
2023/04/30 19:21:19;;;;;;;4.63;2.30;;;;;;;;;;10245190;28;20665;-79
2023/04/30 19:26:21;;;;;;;2.30;2.20;;;;;;;;;;10253107;28;20600;-79
2023/04/30 19:31:22;;;;;;;2.10;2.00;;;;;;;;;;10249300;28;20214;-77
2023/04/30 19:36:23;;;;;;;7.05;3.00;;;;;;;;;;10249065;28;20214;-78
2023/04/30 19:41:26;;;;;;;2.45;2.25;;;;;;;;;;10255151;28;20730;-79
2023/04/30 19:46:27;;;;;;;3.15;2.78;;;;;;;;;;10249028;28;20224;-78
2023/04/30 19:51:28;;;;;;;5.85;3.40;;;;;;;;;;10237642;28;20566;-77
2023/04/30 19:56:30;;;;;;;3.45;3.10;;;;;;;;;;10265688;28;20251;-77
2023/04/30 20:01:31;;;;;;;3.63;2.53;;;;;;;;;;10247764;28;21797;-77
2023/04/30 20:06:32;;;;;;;3.40;3.10;;;;;;;;;;10247629;28;20221;-78
2023/04/30 20:11:34;;;;;;;3.65;2.30;;;;;;;;;;10250726;28;20244;-78
2023/04/30 20:16:35;;;;;;;7.80;3.65;;;;;;;;;;10252103;28;20221;-75
2023/04/30 20:21:36;;;;;;;5.57;3.80;;;;;;;;;;10252551;28;20312;-77
2023/04/30 20:26:37;;;;;;;26.30;14.73;;;;;;;;;;10267194;28;20245;-78
2023/04/30 20:31:39;;;;;;;21.45;10.23;;;;;;;;;;10266051;28;20228;-78
2023/04/30 20:36:40;;;;;;;7.00;4.97;;;;;;;;;;10253063;28;20221;-77
2023/04/30 20:41:42;;;;;;;11.10;7.10;;;;;;;;;;10260408;28;20287;-81
2023/04/30 20:46:44;;;;;;;14.07;9.00;;;;;;;;;;10249478;28;20268;-78
2023/04/30 20:51:45;;;;;;;11.88;8.57;;;;;;;;;;10258177;28;20229;-78
2023/04/30 20:56:46;;;;;;;7.15;6.45;;;;;;;;;;10257466;28;20217;-76
2023/04/30 21:01:47;;;;;;;3.15;2.92;;;;;;;;;;10252226;28;20332;-79
2023/04/30 21:06:48;;;;;;;2.80;2.40;;;;;;;;;;10260830;28;21096;-79
2023/04/30 21:11:49;;;;;;;1.70;1.60;;;;;;;;;;10271479;28;20229;-79
2023/04/30 21:16:50;;;;;;;3.03;2.70;;;;;;;;;;10253983;28;20968;-78
2023/04/30 21:21:52;;;;;;;3.95;2.58;;;;;;;;;;10257547;28;20309;-78
2023/04/30 21:26:53;;;;;;;3.80;2.92;;;;;;;;;;10255682;28;20221;-78
2023/04/30 21:31:55;;;;;;;2.80;2.60;;;;;;;;;;10258208;28;20221;-79
2023/04/30 21:36:56;;;;;;;5.20;2.90;;;;;;;;;;10257396;28;20221;-78
2023/04/30 21:41:57;;;;;;;3.03;2.80;;;;;;;;;;10258390;28;20225;-78
2023/04/30 21:46:58;;;;;;;2.20;2.10;;;;;;;;;;10262946;28;20225;-76
2023/04/30 21:51:59;;;;;;;2.50;2.28;;;;;;;;;;10275521;28;20229;-79
2023/04/30 21:57:01;;;;;;;2.70;2.50;;;;;;;;;;10266949;28;20221;-77
2023/04/30 22:02:02;;;;;;;3.55;3.25;;;;;;;;;;10238845;28;20304;-77
2023/04/30 22:07:04;;;;;;;5.38;4.50;;;;;;;;;;10233135;28;20214;-79
2023/04/30 22:12:07;;;;;;;3.97;3.05;;;;;;;;;;10256245;28;20359;-78
2023/04/30 22:17:08;;;;;;;3.17;2.83;;;;;;;;;;10263748;28;20209;-79
2023/04/30 22:22:09;;;;;;;2.15;2.05;;;;;;;;;;10260872;28;20225;-81
2023/04/30 22:27:10;;;;;;;2.40;1.83;;;;;;;;;;10258760;28;21148;-79
2023/04/30 22:32:11;;;;;;;6.82;1.98;;;;;;;;;;10268525;28;20225;-79
2023/04/30 22:37:12;;;;;;;2.92;2.40;;;;;;;;;;10259309;28;21070;-79
2023/04/30 22:42:14;;;;;;;2.30;2.20;;;;;;;;;;10258181;28;20225;-79
2023/04/30 22:47:15;;;;;;;2.83;2.50;;;;;;;;;;10271489;28;20228;-79
2023/04/30 22:52:17;;;;;;;3.75;2.15;;;;;;;;;;10257733;28;20222;-81
2023/04/30 22:57:18;;;;;;;2.03;1.85;;;;;;;;;;10259078;28;20780;-79
2023/04/30 23:02:19;;;;;;;2.80;2.70;;;;;;;;;;10254032;28;20236;-80
2023/04/30 23:07:21;;;;;;;2.38;1.98;;;;;;;;;;10253433;28;20716;-79
2023/04/30 23:12:22;;;;;;;4.93;2.55;;;;;;;;;;10260360;28;20234;-78
2023/04/30 23:17:23;;;;;;;2.70;2.50;;;;;;;;;;10265025;28;20233;-78
2023/04/30 23:22:24;;;;;;;2.70;2.35;;;;;;;;;;10273747;28;20300;-79
2023/04/30 23:27:29;;;;;;;2.88;2.47;;;;;;;;;;10268112;28;20241;-79
2023/04/30 23:32:30;;;;;;;5.05;2.53;;;;;;;;;;10251038;28;20245;-79
2023/04/30 23:37:31;;;;;;;5.78;4.45;;;;;;;;;;10270006;28;20300;-77
2023/04/30 23:42:33;;;;;;;4.50;2.92;;;;;;;;;;10260215;28;20280;-78
2023/04/30 23:47:37;;;;;;;4.30;2.05;;;;;;;;;;10260102;28;20228;-81
2023/04/30 23:52:38;;;;;;;2.95;2.03;;;;;;;;;;10258328;28;20221;-78
2023/04/30 23:57:39;;;;;;;2.88;2.58;;;;;;;;;;10257802;28;20666;-79
